createdAt,value
2017-06-02T00:02:27.943Z,16.70
2017-06-02T00:04:56.939Z,16.70
2017-06-02T00:07:25.993Z,16.60
2017-06-02T00:09:54.995Z,16.60
2017-06-02T00:12:23.983Z,16.70
2017-06-02T00:14:52.991Z,16.80
2017-06-02T00:17:21.970Z,16.80
2017-06-02T00:19:50.957Z,16.70
2017-06-02T00:22:19.784Z,16.60
2017-06-02T00:24:48.780Z,16.50
2017-06-02T00:27:17.777Z,16.40
2017-06-02T00:29:46.797Z,16.20
2017-06-02T00:32:15.794Z,16.00
2017-06-02T00:34:44.778Z,16.00
2017-06-02T00:37:13.781Z,15.90
2017-06-02T00:39:42.762Z,15.80
2017-06-02T00:42:11.766Z,15.80
2017-06-02T00:44:40.786Z,15.80
2017-06-02T00:47:09.808Z,15.80
2017-06-02T00:49:38.809Z,15.80
2017-06-02T00:52:07.834Z,15.80
2017-06-02T00:54:36.840Z,15.70
2017-06-02T00:57:05.828Z,15.70
2017-06-02T00:59:34.880Z,15.60
2017-06-02T01:02:03.883Z,15.60
2017-06-02T01:04:32.873Z,15.60
2017-06-02T01:07:01.887Z,15.60
2017-06-02T01:09:30.891Z,15.60
2017-06-02T01:11:59.885Z,15.70
2017-06-02T01:14:28.894Z,15.80
2017-06-02T01:16:57.894Z,15.70
2017-06-02T01:19:26.879Z,15.70
2017-06-02T01:21:55.898Z,15.60
2017-06-02T01:24:24.887Z,15.50
2017-06-02T01:26:53.882Z,15.40
2017-06-02T01:29:22.901Z,15.30
2017-06-02T01:31:51.885Z,15.20
2017-06-02T01:34:20.881Z,15.20
2017-06-02T01:36:49.909Z,15.30
2017-06-02T01:39:18.904Z,15.30
2017-06-02T01:41:47.881Z,15.20
2017-06-02T01:44:16.901Z,15.10
2017-06-02T01:46:45.902Z,15.10
2017-06-02T01:49:14.893Z,15.30
2017-06-02T01:51:43.898Z,15.30
2017-06-02T01:54:12.930Z,15.20
2017-06-02T01:56:41.937Z,15.10
2017-06-02T01:59:10.945Z,15.10
2017-06-02T02:01:39.947Z,15.20
2017-06-02T02:04:08.951Z,15.30
2017-06-02T02:06:37.966Z,15.20
2017-06-02T02:09:06.962Z,15.20
2017-06-02T02:11:35.949Z,15.20
2017-06-02T02:14:04.963Z,15.10
2017-06-02T02:16:33.957Z,15.00
2017-06-02T02:19:02.949Z,14.90
2017-06-02T02:21:31.965Z,14.90
2017-06-02T02:24:00.951Z,15.00
2017-06-02T02:26:29.954Z,14.90
2017-06-02T02:28:58.959Z,15.00
2017-06-02T02:31:27.974Z,15.00
2017-06-02T02:33:56.992Z,15.10
2017-06-02T02:36:26.013Z,15.00
2017-06-02T02:38:54.994Z,15.00
2017-06-02T02:41:23.998Z,14.80
2017-06-02T02:43:53.017Z,14.80
2017-06-02T02:46:22.009Z,14.80
2017-06-02T02:48:51.002Z,14.70
2017-06-02T02:51:20.031Z,14.80
2017-06-02T02:53:49.035Z,14.70
2017-06-02T02:56:18.129Z,14.70
2017-06-02T02:58:47.155Z,14.70
2017-06-02T03:01:16.154Z,14.70
2017-06-02T03:03:45.160Z,14.70
2017-06-02T03:06:14.201Z,14.60
2017-06-02T03:08:43.182Z,14.60
2017-06-02T03:11:12.172Z,14.60
2017-06-02T03:13:41.169Z,14.60
2017-06-02T03:16:10.157Z,14.70
2017-06-02T03:18:39.133Z,14.60
2017-06-02T03:21:08.165Z,14.60
2017-06-02T03:23:37.190Z,14.60
2017-06-02T03:26:06.199Z,14.60
2017-06-02T03:28:35.214Z,14.50
2017-06-02T03:31:04.208Z,14.60
2017-06-02T03:33:33.201Z,14.60
2017-06-02T03:36:02.206Z,14.60
2017-06-02T03:38:31.202Z,14.70
2017-06-02T03:41:00.198Z,14.70
2017-06-02T03:43:29.214Z,14.70
2017-06-02T03:45:58.228Z,14.70
2017-06-02T03:48:27.225Z,14.70
2017-06-02T03:50:56.247Z,14.70
2017-06-02T03:53:25.226Z,14.80
2017-06-02T03:55:54.230Z,14.90
2017-06-02T03:58:23.344Z,15.00
2017-06-02T04:00:52.343Z,15.10
2017-06-02T04:03:21.354Z,15.10
2017-06-02T04:05:50.366Z,15.10
2017-06-02T04:08:19.376Z,15.20
2017-06-02T04:10:48.365Z,15.30
2017-06-02T04:13:17.390Z,15.40
2017-06-02T04:15:46.420Z,15.50
2017-06-02T04:18:15.402Z,15.60
2017-06-02T04:20:44.445Z,15.70
2017-06-02T04:23:13.451Z,15.70
2017-06-02T04:25:42.437Z,15.80
2017-06-02T04:28:11.459Z,15.90
2017-06-02T04:30:40.440Z,15.90
2017-06-02T04:33:09.427Z,16.00
2017-06-02T04:35:38.439Z,16.10
2017-06-02T04:38:07.459Z,16.20
2017-06-02T04:40:36.466Z,16.40
2017-06-02T04:43:05.483Z,16.40
2017-06-02T04:45:34.487Z,16.60
2017-06-02T04:48:03.498Z,16.60
2017-06-02T04:50:32.510Z,16.70
2017-06-02T04:53:01.510Z,16.80
2017-06-02T04:55:30.510Z,16.90
2017-06-02T04:57:59.538Z,17.00
2017-06-02T05:00:28.543Z,17.10
2017-06-02T05:02:57.637Z,17.30
2017-06-02T05:05:26.647Z,17.50
2017-06-02T05:07:55.650Z,17.60
2017-06-02T05:10:24.641Z,17.80
2017-06-02T05:12:53.645Z,18.10
2017-06-02T05:15:22.634Z,18.40
2017-06-02T05:17:51.669Z,18.60
2017-06-02T05:20:20.702Z,18.70
2017-06-02T05:22:49.686Z,19.00
2017-06-02T05:25:18.690Z,19.30
2017-06-02T05:27:47.714Z,19.50
2017-06-02T05:30:16.715Z,19.60
2017-06-02T05:32:45.712Z,19.70
2017-06-02T05:35:14.769Z,19.90
2017-06-02T05:37:43.752Z,20.00
2017-06-02T05:40:12.904Z,20.20
2017-06-02T05:42:41.924Z,20.40
2017-06-02T05:45:10.760Z,20.60
2017-06-02T05:47:39.765Z,20.80
2017-06-02T05:50:08.758Z,21.00
2017-06-02T05:52:37.758Z,21.20
2017-06-02T05:55:06.748Z,21.30
2017-06-02T05:57:35.761Z,21.40
2017-06-02T06:00:04.766Z,21.60
2017-06-02T06:02:33.818Z,21.80
2017-06-02T06:05:02.857Z,21.90
2017-06-02T06:07:31.874Z,22.00
2017-06-02T06:10:00.878Z,22.10
2017-06-02T06:12:29.883Z,22.30
2017-06-02T06:14:58.889Z,22.40
2017-06-02T06:17:27.883Z,22.60
2017-06-02T06:19:56.892Z,22.80
2017-06-02T06:22:26.617Z,22.80
2017-06-02T06:24:55.606Z,23.00
2017-06-02T06:27:24.656Z,23.10
2017-06-02T06:29:53.690Z,23.20
2017-06-02T06:32:22.697Z,23.40
2017-06-02T06:34:51.712Z,23.50
2017-06-02T06:37:20.707Z,23.70
2017-06-02T06:39:49.711Z,23.90
2017-06-02T06:42:18.713Z,24.00
2017-06-02T06:44:47.742Z,24.00
2017-06-02T06:47:16.725Z,24.10
2017-06-02T06:49:45.705Z,24.20
2017-06-02T06:52:14.701Z,24.20
2017-06-02T06:54:43.697Z,24.50
2017-06-02T06:57:12.710Z,24.60
2017-06-02T06:59:41.709Z,24.70
2017-06-02T07:02:10.685Z,24.90
2017-06-02T07:04:39.690Z,25.10
2017-06-02T07:07:08.679Z,25.00
2017-06-02T07:09:37.713Z,25.10
2017-06-02T07:12:06.705Z,25.30
2017-06-02T07:14:35.692Z,25.40
2017-06-02T07:17:04.697Z,25.50
2017-06-02T07:19:33.718Z,25.50
2017-06-02T07:22:02.709Z,25.40
2017-06-02T07:24:31.687Z,25.30
2017-06-02T07:27:00.706Z,25.40
2017-06-02T07:29:29.701Z,25.60
2017-06-02T07:31:58.729Z,25.60
2017-06-02T07:34:27.712Z,25.50
2017-06-02T07:36:56.688Z,25.60
2017-06-02T07:39:25.688Z,25.70
2017-06-02T07:41:54.677Z,26.00
2017-06-02T07:44:23.682Z,26.00
2017-06-02T07:46:53.669Z,26.30
2017-06-02T07:49:22.644Z,26.30
2017-06-02T07:51:51.647Z,26.50
2017-06-02T07:54:20.613Z,26.50
2017-06-02T07:56:49.626Z,26.80
2017-06-02T07:59:18.605Z,26.30
2017-06-02T08:01:47.600Z,26.50
2017-06-02T08:04:16.612Z,26.70
2017-06-02T08:06:45.988Z,26.80
2017-06-02T08:09:15.043Z,27.00
2017-06-02T08:11:44.133Z,27.30
2017-06-02T08:14:13.227Z,26.80
2017-06-02T08:16:42.220Z,26.30
2017-06-02T08:19:11.223Z,26.00
2017-06-02T08:21:40.215Z,26.00
2017-06-02T08:24:09.191Z,26.30
2017-06-02T08:26:38.205Z,26.50
2017-06-02T08:29:07.183Z,27.00
2017-06-02T08:31:36.173Z,27.50
2017-06-02T08:34:05.267Z,28.00
2017-06-02T08:36:34.263Z,28.30
2017-06-02T08:39:03.296Z,28.40
2017-06-02T08:41:32.294Z,28.40
2017-06-02T08:44:01.274Z,28.50
2017-06-02T08:46:30.274Z,28.50
2017-06-02T08:48:59.276Z,28.40
2017-06-02T08:51:28.276Z,28.40
2017-06-02T08:53:57.256Z,28.10
2017-06-02T08:56:26.240Z,27.70
2017-06-02T08:58:55.248Z,28.10
2017-06-02T09:01:24.239Z,28.30
2017-06-02T09:03:53.264Z,28.50
2017-06-02T09:06:22.247Z,28.30
2017-06-02T09:08:51.259Z,27.20
2017-06-02T09:11:20.251Z,27.60
2017-06-02T09:13:49.228Z,28.10
2017-06-02T09:16:18.217Z,28.20
2017-06-02T09:18:47.215Z,28.50
2017-06-02T09:21:16.213Z,28.80
2017-06-02T09:23:45.187Z,29.00
2017-06-02T09:26:14.188Z,28.50
2017-06-02T09:28:43.162Z,28.80
2017-06-02T09:31:12.150Z,29.00
2017-06-02T09:33:41.142Z,28.20
2017-06-02T09:36:39.962Z,28.20
2017-06-02T09:39:08.193Z,28.30
2017-06-02T09:41:36.402Z,28.30
2017-06-02T09:44:04.630Z,27.90
2017-06-02T09:46:32.834Z,28.20
2017-06-02T09:49:01.799Z,28.30
2017-06-02T09:51:30.007Z,28.30
2017-06-02T09:53:59.756Z,29.10
2017-06-02T09:56:27.990Z,29.00
2017-06-02T09:58:56.962Z,29.40
2017-06-02T10:01:25.157Z,29.40
2017-06-02T10:03:53.366Z,29.80
2017-06-02T10:06:21.575Z,29.70
2017-06-02T10:08:49.784Z,30.00
2017-06-02T10:11:17.996Z,29.90
2017-06-02T10:13:46.205Z,29.80
2017-06-02T10:16:14.424Z,28.90
2017-06-02T10:18:42.706Z,28.90
2017-06-02T10:21:10.970Z,29.30
2017-06-02T10:23:39.230Z,29.50
2017-06-02T10:26:07.504Z,29.90
2017-06-02T10:28:35.741Z,29.90
2017-06-02T10:31:03.953Z,30.00
2017-06-02T10:33:32.206Z,30.20
2017-06-02T10:36:00.472Z,30.30
2017-06-02T10:38:28.681Z,30.10
2017-06-02T10:40:56.941Z,30.00
2017-06-02T10:43:25.924Z,30.30
2017-06-02T10:45:54.168Z,30.30
2017-06-02T10:48:22.438Z,30.30
2017-06-02T10:50:50.648Z,29.60
2017-06-02T10:53:18.867Z,28.80
2017-06-02T10:55:47.106Z,29.00
2017-06-02T10:58:16.101Z,28.70
2017-06-02T11:00:44.326Z,28.70
2017-06-02T11:03:12.545Z,28.70
2017-06-02T11:05:40.789Z,29.10
2017-06-02T11:08:08.998Z,29.50
2017-06-02T11:10:38.109Z,29.60
2017-06-02T11:13:06.319Z,29.60
2017-06-02T11:15:34.510Z,29.90
2017-06-02T11:18:02.729Z,30.00
2017-06-02T11:20:30.958Z,29.90
2017-06-02T11:22:59.200Z,28.60
2017-06-02T11:25:27.418Z,28.80
2017-06-02T11:27:55.632Z,29.50
2017-06-02T11:30:23.842Z,29.90
2017-06-02T11:32:52.051Z,30.10
2017-06-02T11:35:21.051Z,29.70
2017-06-02T11:37:49.294Z,29.70
2017-06-02T11:40:17.503Z,30.00
2017-06-02T11:42:45.730Z,30.30
2017-06-02T11:45:13.938Z,30.30
2017-06-02T11:47:42.930Z,29.60
2017-06-02T11:50:11.912Z,29.80
2017-06-02T11:55:15.657Z,29.10
2017-06-02T11:57:43.880Z,28.30
2017-06-02T12:00:12.104Z,27.40
2017-06-02T12:02:40.310Z,27.10
2017-06-02T12:05:08.554Z,27.90
2017-06-02T12:07:36.794Z,28.80
2017-06-02T12:10:05.007Z,29.40
2017-06-02T12:12:33.345Z,29.80
2017-06-02T12:15:01.860Z,29.60
2017-06-02T12:17:30.082Z,28.70
2017-06-02T12:19:58.359Z,28.20
2017-06-02T12:22:26.573Z,28.30
2017-06-02T12:24:55.581Z,28.80
2017-06-02T12:27:23.802Z,28.80
2017-06-02T12:29:52.029Z,29.10
2017-06-02T12:32:20.283Z,29.50
2017-06-02T12:34:49.257Z,29.60
2017-06-02T12:37:17.513Z,29.50
2017-06-02T12:39:45.751Z,29.10
2017-06-02T12:42:13.980Z,29.20
2017-06-02T12:44:42.197Z,27.80
2017-06-02T12:47:10.421Z,26.90
2017-06-02T12:49:38.649Z,27.20
2017-06-02T12:52:06.870Z,27.90
2017-06-02T12:54:35.110Z,27.90
2017-06-02T12:57:03.337Z,27.30
2017-06-02T12:59:31.433Z,27.10
2017-06-02T13:01:59.674Z,27.50
2017-06-02T13:04:27.889Z,27.30
2017-06-02T13:06:56.095Z,27.50
2017-06-02T13:09:24.337Z,28.00
2017-06-02T13:11:52.547Z,28.00
2017-06-02T13:14:20.798Z,27.70
2017-06-02T13:16:49.026Z,27.60
2017-06-02T13:19:17.231Z,27.70
2017-06-02T13:21:45.481Z,27.50
2017-06-02T13:24:14.474Z,27.40
2017-06-02T13:26:43.482Z,28.10
2017-06-02T13:29:11.688Z,28.10
2017-06-02T13:31:39.912Z,28.30
2017-06-02T13:34:08.942Z,28.60
2017-06-02T13:36:37.156Z,28.60
2017-06-02T13:39:05.406Z,28.60
2017-06-02T13:41:33.629Z,27.60
2017-06-02T13:44:02.619Z,27.30
2017-06-02T13:46:30.849Z,27.30
2017-06-02T13:48:59.067Z,27.30
2017-06-02T13:51:27.886Z,28.20
2017-06-02T13:53:56.121Z,28.20
2017-06-02T13:56:24.347Z,28.40
2017-06-02T13:58:52.593Z,28.20
2017-06-02T14:01:21.561Z,28.70
2017-06-02T14:03:49.797Z,28.70
2017-06-02T14:06:17.998Z,28.30
2017-06-02T14:08:46.220Z,28.20
2017-06-02T14:11:14.441Z,28.60
2017-06-02T14:13:42.663Z,28.20
2017-06-02T14:16:10.914Z,27.70
2017-06-02T14:18:39.893Z,27.90
2017-06-02T14:21:08.127Z,27.80
2017-06-02T14:23:36.411Z,28.00
2017-06-02T14:26:04.637Z,27.60
2017-06-02T14:28:33.647Z,27.40
2017-06-02T14:31:01.879Z,27.30
2017-06-02T14:33:33.884Z,26.90
2017-06-02T14:36:02.117Z,26.80
2017-06-02T14:38:30.361Z,27.10
2017-06-02T14:40:59.115Z,27.20
2017-06-02T14:43:27.341Z,27.60
2017-06-02T14:45:55.597Z,27.80
2017-06-02T14:48:23.834Z,27.60
2017-06-02T14:50:52.807Z,27.60
2017-06-02T14:53:21.827Z,27.80
2017-06-02T14:55:50.037Z,27.80
2017-06-02T14:58:18.286Z,27.80
2017-06-02T15:00:46.530Z,27.90
2017-06-02T15:03:15.510Z,26.80
2017-06-02T15:05:43.746Z,26.80
2017-06-02T15:08:11.991Z,26.90
2017-06-02T15:10:40.269Z,26.90
2017-06-02T15:13:08.494Z,27.00
2017-06-02T15:15:36.749Z,26.90
2017-06-02T15:18:04.994Z,26.90
2017-06-02T15:20:33.238Z,26.70
2017-06-02T15:23:01.481Z,26.70
2017-06-02T15:25:29.733Z,26.50
2017-06-02T15:27:57.940Z,26.70
2017-06-02T15:30:26.167Z,26.80
2017-06-02T15:32:54.373Z,27.00
2017-06-02T15:35:22.613Z,27.00
2017-06-02T15:37:51.011Z,26.70
2017-06-02T15:40:19.238Z,27.00
2017-06-02T15:42:47.445Z,27.00
2017-06-02T15:45:15.662Z,27.00
2017-06-02T15:47:44.020Z,26.90
2017-06-02T15:50:12.227Z,27.10
2017-06-02T15:52:40.446Z,27.10
2017-06-02T15:55:08.662Z,27.00
2017-06-02T15:57:36.868Z,26.80
2017-06-02T16:00:05.110Z,27.00
2017-06-02T16:02:33.317Z,26.90
2017-06-02T16:05:02.308Z,26.40
2017-06-02T16:07:31.336Z,26.50
2017-06-02T16:09:59.567Z,26.50
2017-06-02T16:12:28.556Z,26.70
2017-06-02T16:14:56.764Z,26.70
2017-06-02T16:17:24.974Z,26.90
2017-06-02T16:19:53.196Z,27.10
2017-06-02T16:22:22.180Z,27.30
2017-06-02T16:24:51.173Z,26.80
2017-06-02T16:27:19.429Z,26.70
2017-06-02T16:29:47.639Z,26.30
2017-06-02T16:32:15.861Z,26.40
2017-06-02T16:34:44.065Z,26.60
2017-06-02T16:37:12.342Z,26.60
2017-06-02T16:39:41.313Z,26.60
2017-06-02T16:42:09.524Z,26.60
2017-06-02T16:44:37.742Z,26.80
2017-06-02T16:47:05.958Z,26.90
2017-06-02T16:49:34.955Z,27.30
2017-06-02T16:52:03.947Z,27.30
2017-06-02T16:54:32.918Z,27.30
2017-06-02T16:57:01.142Z,27.30
2017-06-02T16:59:29.356Z,27.20
2017-06-02T17:01:58.722Z,27.20
2017-06-02T17:04:27.752Z,26.30
2017-06-02T17:06:55.955Z,26.30
2017-06-02T17:09:24.848Z,25.80
2017-06-02T17:11:53.042Z,25.50
2017-06-02T17:14:21.268Z,24.90
2017-06-02T17:16:49.493Z,24.70
2017-06-02T17:19:17.730Z,24.70
2017-06-02T17:21:45.999Z,24.50
2017-06-02T17:24:14.217Z,24.40
2017-06-02T17:26:42.464Z,24.20
2017-06-02T17:29:10.686Z,24.00
2017-06-02T17:31:39.661Z,23.80
2017-06-02T17:34:07.887Z,23.80
2017-06-02T17:36:36.092Z,23.80
2017-06-02T17:41:39.227Z,23.50
2017-06-02T17:44:08.207Z,23.60
2017-06-02T17:46:36.416Z,23.60
2017-06-02T17:49:04.626Z,23.70
2017-06-02T17:51:32.849Z,23.80
2017-06-02T17:54:01.826Z,24.20
2017-06-02T17:56:30.827Z,24.30
2017-06-02T17:58:59.787Z,24.30
2017-06-02T18:01:28.027Z,24.30
2017-06-02T18:03:56.246Z,24.30
2017-06-02T18:06:24.462Z,24.30
2017-06-02T18:08:52.689Z,24.40
2017-06-02T18:11:20.907Z,24.60
2017-06-02T18:13:49.122Z,24.70
2017-06-02T18:16:17.343Z,24.60
2017-06-02T18:18:45.554Z,24.50
2017-06-02T18:21:13.779Z,24.40
2017-06-02T18:23:42.783Z,24.40
2017-06-02T18:26:11.001Z,24.30
2017-06-02T18:28:39.217Z,24.40
2017-06-02T18:31:08.231Z,24.50
2017-06-02T18:33:36.445Z,24.50
2017-06-02T18:36:04.688Z,24.50
2017-06-02T18:38:32.954Z,24.50
2017-06-02T18:41:01.179Z,24.30
2017-06-02T18:43:29.403Z,24.20
2017-06-02T18:45:57.613Z,24.10
2017-06-02T18:48:25.839Z,23.80
2017-06-02T18:50:54.840Z,23.50
2017-06-02T18:53:23.053Z,23.40
2017-06-02T18:55:51.320Z,23.30
2017-06-02T18:58:19.516Z,23.20
2017-06-02T19:00:47.751Z,23.10
2017-06-02T19:03:15.980Z,23.10
2017-06-02T19:05:44.259Z,23.00
2017-06-02T19:08:13.281Z,22.80
2017-06-02T19:10:41.312Z,22.80
2017-06-02T19:13:09.562Z,22.60
2017-06-02T19:15:37.786Z,22.50
2017-06-02T19:18:06.020Z,22.40
2017-06-02T19:20:34.240Z,22.40
2017-06-02T19:23:02.466Z,22.20
2017-06-02T19:25:30.689Z,22.10
2017-06-02T19:27:58.900Z,22.10
2017-06-02T19:30:27.139Z,22.00
2017-06-02T19:32:55.348Z,22.00
2017-06-02T19:35:23.816Z,21.90
2017-06-02T19:37:52.039Z,21.90
2017-06-02T19:40:20.263Z,21.80
2017-06-02T19:42:48.526Z,21.80
2017-06-02T19:45:16.726Z,21.70
2017-06-02T19:47:44.965Z,21.70
2017-06-02T19:50:13.171Z,21.70
2017-06-02T19:52:41.415Z,21.60
2017-06-02T19:55:09.653Z,21.60
2017-06-02T19:57:37.862Z,21.60
2017-06-02T20:00:06.102Z,21.50
2017-06-02T20:02:34.311Z,21.40
2017-06-02T20:05:02.520Z,21.40
2017-06-02T20:07:30.747Z,21.40
2017-06-02T20:09:58.955Z,21.40
2017-06-02T20:12:27.437Z,21.40
2017-06-02T20:14:55.706Z,21.40
2017-06-02T20:17:23.913Z,21.40
2017-06-02T20:19:52.136Z,21.40
2017-06-02T20:22:20.483Z,21.40
2017-06-02T20:24:48.721Z,21.50
2017-06-02T20:27:16.985Z,21.50
2017-06-02T20:29:45.194Z,21.50
2017-06-02T20:32:13.454Z,21.50
2017-06-02T20:34:41.688Z,21.50
2017-06-02T20:37:09.933Z,21.50
2017-06-02T20:39:38.140Z,21.50
2017-06-02T20:42:06.338Z,21.40
2017-06-02T20:44:34.559Z,21.40
2017-06-02T20:47:03.539Z,21.40
2017-06-02T20:49:31.768Z,21.40
2017-06-02T20:51:59.977Z,21.40
2017-06-02T20:54:28.191Z,21.40
2017-06-02T20:56:56.416Z,21.40
2017-06-02T20:59:24.610Z,21.30
2017-06-02T21:01:52.835Z,21.30
2017-06-02T21:04:21.059Z,21.30
2017-06-02T21:06:49.268Z,21.20
2017-06-02T21:09:17.494Z,21.20
2017-06-02T21:11:45.717Z,21.10
2017-06-02T21:14:13.987Z,21.00
2017-06-02T21:16:42.205Z,20.90
2017-06-02T21:19:10.404Z,20.80
2017-06-02T21:21:38.660Z,20.80
2017-06-02T21:24:06.922Z,20.70
2017-06-02T21:26:35.169Z,20.70
2017-06-02T21:29:03.387Z,20.70
2017-06-02T21:31:31.670Z,20.80
2017-06-02T21:33:59.931Z,20.80
2017-06-02T21:36:28.171Z,20.80
2017-06-02T21:38:56.463Z,20.90
2017-06-02T21:41:24.726Z,20.90
2017-06-02T21:43:52.946Z,20.90
2017-06-02T21:46:21.247Z,20.80
2017-06-02T21:48:49.486Z,20.70
2017-06-02T21:51:17.726Z,20.60
2017-06-02T21:53:45.989Z,20.50
2017-06-02T21:56:14.218Z,20.40
2017-06-02T21:58:42.437Z,20.30
2017-06-02T22:01:10.654Z,20.20
2017-06-02T22:03:38.905Z,20.10
2017-06-02T22:06:07.130Z,20.10
2017-06-02T22:08:35.334Z,20.00
2017-06-02T22:11:03.729Z,19.90
2017-06-02T22:13:31.943Z,19.90
2017-06-02T22:16:00.191Z,19.70
2017-06-02T22:18:28.401Z,19.60
2017-06-02T22:20:56.608Z,19.40
2017-06-02T22:23:24.849Z,19.30
2017-06-02T22:25:53.839Z,19.00
2017-06-02T22:28:22.088Z,19.00
2017-06-02T22:30:50.318Z,18.80
2017-06-02T22:33:18.541Z,18.80
2017-06-02T22:35:46.768Z,18.70
2017-06-02T22:38:14.990Z,18.60
2017-06-02T22:40:43.213Z,18.60
2017-06-02T22:43:11.426Z,18.50
2017-06-02T22:45:39.647Z,18.50
2017-06-02T22:48:07.873Z,18.50
2017-06-02T22:50:36.081Z,18.50
2017-06-02T22:53:04.321Z,18.50
2017-06-02T22:55:32.529Z,18.40
2017-06-02T22:58:00.739Z,18.20
2017-06-02T23:00:28.961Z,18.30
2017-06-02T23:02:57.196Z,18.50
2017-06-02T23:05:25.487Z,18.60
2017-06-02T23:07:53.728Z,18.60
2017-06-02T23:10:21.965Z,18.60
2017-06-02T23:12:50.243Z,18.70
2017-06-02T23:15:18.474Z,18.90
2017-06-02T23:17:46.961Z,19.10
2017-06-02T23:20:15.230Z,19.00
2017-06-02T23:22:43.460Z,18.90
2017-06-02T23:25:11.683Z,19.10
2017-06-02T23:27:39.875Z,19.10
2017-06-02T23:30:08.097Z,18.90
2017-06-02T23:32:37.077Z,19.10
2017-06-02T23:35:05.286Z,19.10
2017-06-02T23:37:33.520Z,19.10
2017-06-02T23:40:01.719Z,19.00
2017-06-02T23:42:29.953Z,18.90
2017-06-02T23:44:58.153Z,18.90
2017-06-02T23:47:27.157Z,18.80
2017-06-02T23:49:55.383Z,18.80
2017-06-02T23:52:23.594Z,18.70
2017-06-02T23:54:52.594Z,18.70
2017-06-02T23:57:21.578Z,18.70
2017-06-02T23:59:50.573Z,18.70
